ACT        NSW        VIC        QLD        SA        WA        TAS        NT        INFO        CALC            by VK5ZD

  Atmospheric Gas Attenuation - ITU Rec 676-11   --------------- db/100km ---------------
Station Date Time Temp RH % AH g/m3 Dew Point Wind Direction Speed kph Gust kph Barometer mB Rainfall Since 9am 24GHz 47GHz 76GHz 122GHz 134GHz 241GHz
Bushy Park 24 19:00 29.4 21 6.17 4.9 17 22 1013.1 0 13.9 18.7 25.3 65.9 55.9 191.3
Butlers Gorge 24 19:00 24.3 27 5.97 4.1 13 20 1013.1 0 13.6 19.5 26.2 68.3 57.4 195.9
Campania 24 19:00 21.5 71 13.39 16 22 30 1013.1 0 29.3 31.4 55.0 145.0 151.0 523.3
Cape Bruny 24 15:00 17 85 12.3 14.4 9 1013.1 0.1 27.3 31.1 53.4 140.8 144.3 499.4
Cape Bruny Aws 24 19:00 16.6 79 11.16 12.9 13 17 1005.3 0 24.9 29.0 48.4 127.5 128.2 443.0
Cape Grim 24 19:00 19.1 81 13.28 15.8 33 41 1005 0 29.3 31.7 55.8 147.2 153.3 531.1
Cape Sorell 24 19:00 18.7 72 11.53 13.6 7 11 1004.8 0.2 25.6 28.9 48.6 128.1 129.7 448.5
Cressy 24 19:00 26 29 7.06 6.6 32 43 1013.1 0 15.8 20.6 29.1 76.1 67.6 231.8
Davey Gorge (Pws) 24 18:30 18.8 72 11.59 13.6 9 11 1013.1 0 25.7 29.3 49.2 129.6 131.2 453.7
Dennes Point 24 19:00 20.4 73 12.91 15.4 4 6 1005.6 0 28.4 30.6 53.3 140.7 145.6 504.4
Devonport Airport 24 19:00 18.8 83 13.37 15.9 13 15 1007.5 0 29.5 32.1 56.5 149.2 155.5 538.7
Dove River (Pws) 24 18:50 22.8 40 8.13 8.5 24 28 1013.1 0 18.2 22.8 33.9 88.9 82.3 283.3
Dover 24 09:00 16.9 73 10.5 12 6 1013.1 0 23.5 28.1 45.8 120.6 119.4 412.5
Dunalley 24 19:00 19.5 74 12.42 14.7 35 44 1005.1 0 27.4 30.1 51.8 136.7 140.5 486.4
Fingal 24 19:00 23.6 61 12.97 15.6 9 13 1013.1 0 28.3 29.9 51.8 136.6 141.3 489.7
Flinders Island Airport 24 19:00 22.7 54 10.91 12.9 9 13 1007 0 24.0 26.7 43.9 115.6 115.4 399.3
Friendly Beaches 24 19:00 19.5 84 14.1 16.7 13 22 1005.9 0 31.0 33.1 59.1 156.2 164.4 569.8
Grove 24 19:00 22.4 58 11.52 13.8 9 15 1013.1 0 25.3 28.0 46.7 123.1 124.3 430.1
Hartz Mountains 24 19:00 20.7 35 6.3 4.7 11 19 1013.1 0 14.4 20.7 28.5 74.3 63.6 217.3
Hobart 24 19:00 20.7 71 12.78 15.3 20 26 1005.6 0 28.1 30.3 52.6 138.7 143.3 496.2
Hobart Airport 24 19:00 20.3 75 13.19 15.8 28 32 1005.2 0 29.0 31.1 54.6 144.0 149.7 518.6
King Island Airport 24 19:00 24.7 61 13.81 16.7 19 22 1003.8 0 30.0 30.6 54.0 142.6 149.4 518.2
Kunanyi / Mount Wellington 24 19:00 17.4 51 7.56 7.2 13 20 1013.1 0 17.2 23.3 34.1 89.4 81.1 278.4
Lake Leake 24 09:00 15.2 96 12.46 14.5 6 1013.1 0 27.8 32.0 55.4 146.1 150.2 519.5
Lake St Clair 24 09:00 14 77 9.29 10.1 0 1013.1 0 21.1 27.0 42.5 111.6 107.3 369.8
Larapuna (Eddystone Point) 24 19:00 18.7 100 16.01 18.7 32 37 1006.8 0 35.2 37.0 68.7 181.5 195.2 677.0
Launceston 24 19:00 24.5 31 6.94 6.3 19 26 1013.1 0 15.6 20.7 29.3 76.5 67.5 231.5
Launceston Airport 24 19:00 23.7 30 6.42 5.1 30 35 1005.2 0 14.6 20.0 27.6 72.0 62.1 212.6
Low Rocky Point 24 19:00 16.5 86 12.08 14.2 7 11 1004.9 0 26.9 30.6 52.4 138.1 141.2 488.6
Luncheon Hill 24 19:00 22.1 31 6.05 4.2 20 24 1013.1 0 13.9 20.1 27.2 70.8 59.8 204.1
Macquarie Island 24 19:00 5.7 86 6.12 3.5 69 80 977.4 7.2 14.6 22.8 32.0 84.2 72.1 245.7
Maria Island 24 19:00 19.1 85 13.93 16.5 26 32 1005.2 0 30.7 32.9 58.7 154.9 162.7 563.8
Marrawah 24 09:00 16.3 78 10.82 12.5 4 1011.1 0 24.2 28.7 47.4 124.9 124.6 430.3
Melton Mowbray 24 09:00 15.3 79 10.32 11.8 0 1013.1 0 23.2 28.3 46.0 121.1 119.5 412.4
Orford 24 09:00 19.2 92 15.17 17.9 4 1013.1 0 33.3 35.4 64.7 170.8 181.9 630.7
Ouse 24 19:00 31.3 17 5.53 3.4 9 13 1003.4 0 12.5 17.4 22.6 58.9 48.2 164.3
Pws C 24 18:50 21.2 60 11.12 13.2 6 7 1013.1 0 24.6 27.7 45.9 120.7 121.0 418.4
Ross 24 09:00 15.6 88 11.7 13.7 0 1013.1 0 26.1 30.5 51.7 136.3 138.3 478.3
Scotts Peak 24 19:00 22.6 50 10.04 11.7 11 15 1013.1 0 22.2 25.6 40.9 107.6 105.3 363.7
Scottsdale 24 19:00 23.5 43 9.09 10.2 11 13 1006.8 0 20.2 23.7 36.8 96.6 92.2 318.2
Sheffield 24 19:00 22.2 36 7.07 6.4 17 22 1006.7 0 16.0 21.2 30.3 79.2 70.5 241.8
Smithton 24 19:00 19.9 70 12.03 14.3 19 24 1005.8 0 26.6 29.3 50.0 131.8 134.5 465.5
St Helens 24 19:00 20.8 73 13.22 15.8 9 15 1006.3 0 29.1 31.1 54.4 143.5 149.2 517.1
Strahan 24 19:00 21.6 63 11.95 14.3 2 7 1005.1 0 26.3 28.6 48.5 128.0 130.4 451.5
Strathgordon 24 09:00 14.7 80 10.07 11.4 13 1013.1 0 22.7 28.0 45.3 119.2 116.9 403.5
Swan Island 24 19:00 18.7 88 14.09 16.7 11 15 1007.2 0 31.1 33.4 59.8 157.9 166.2 575.8
Swansea 24 09:00 18.7 84 13.45 16 11 1010.5 0 29.7 32.4 57.1 150.7 157.2 544.6
Tasman Island 24 19:00 16.1 94 12.88 15.1 30 41 1006.1 0 28.7 32.2 56.3 148.5 153.7 532.2
Tunnack 24 19:00 23 57 11.71 14 9 15 1005.5 0 25.7 27.8 46.8 123.3 125.0 432.9
Warra 24 19:00 23.2 35 7.28 6.9 6 9 1013.1 0 16.4 21.5 30.9 80.7 72.3 248.3
Wynyard 24 19:00 18.7 79 12.65 15 13 17 1006.4 0 28.0 30.8 53.4 140.9 145.3 503.2

Last Refresh: 24-Jan-2021 18:38:55

The information presented on this site is sourced from the Bureau of Meteorology.  Copyright in all material sourced from the Bureau of Meteorology resides with the Commonwealth of Australia.